createdAt,value
2023-01-17T00:02:09.833Z,99464.13
2023-01-17T00:04:55.763Z,99458.33
2023-01-17T00:07:42.942Z,99446.23
2023-01-17T00:10:13.472Z,99451.36
2023-01-17T00:12:46.455Z,99454.77
2023-01-17T00:15:13.691Z,99448.98
2023-01-17T00:17:40.565Z,99437.20
2023-01-17T00:20:31.355Z,99432.39
2023-01-17T00:23:17.246Z,99428.61
2023-01-17T00:26:02.424Z,99418.94
2023-01-17T00:28:37.974Z,99416.14
2023-01-17T00:31:08.256Z,99415.93
2023-01-17T00:33:35.762Z,99410.19
2023-01-17T00:36:04.434Z,99405.02
2023-01-17T00:38:34.946Z,99402.86
2023-01-17T00:41:13.272Z,99405.52
2023-01-17T00:43:59.379Z,99406.92
2023-01-17T00:46:45.551Z,99400.80
2023-01-17T00:49:31.808Z,99399.58
2023-01-17T00:52:17.270Z,99399.69
2023-01-17T00:55:02.825Z,99409.52
2023-01-17T00:57:48.421Z,99417.80
2023-01-17T01:00:36.884Z,99419.86
2023-01-17T01:03:28.096Z,99411.88
2023-01-17T01:06:13.712Z,99402.60
2023-01-17T01:08:59.443Z,99400.09
2023-01-17T01:11:44.972Z,99393.55
2023-01-17T01:14:30.524Z,99393.79
2023-01-17T01:17:15.888Z,99399.06
2023-01-17T01:20:01.363Z,99397.57
2023-01-17T01:22:46.767Z,99391.88
2023-01-17T01:25:32.324Z,99389.61
2023-01-17T01:28:44.427Z,99376.20
2023-01-17T01:31:30.143Z,99363.98
2023-01-17T01:33:57.266Z,99367.98
2023-01-17T01:36:24.008Z,99366.45
2023-01-17T01:38:50.771Z,99365.59
2023-01-17T01:41:17.691Z,99373.20
2023-01-17T01:43:55.389Z,99369.26
2023-01-17T01:46:28.373Z,99359.55
2023-01-17T01:49:11.927Z,99365.11
2023-01-17T01:51:42.438Z,99372.44
2023-01-17T01:54:17.308Z,99373.57
2023-01-17T01:56:46.160Z,99372.23
2023-01-17T01:59:17.405Z,99372.80
2023-01-17T02:01:44.279Z,99364.92
2023-01-17T02:04:12.565Z,99360.39
2023-01-17T02:06:43.365Z,99357.83
2023-01-17T02:09:12.153Z,99346.26
2023-01-17T02:11:40.227Z,99344.14
2023-01-17T02:14:08.397Z,99340.50
2023-01-17T02:16:38.143Z,99331.53
2023-01-17T02:19:45.604Z,99330.98
2023-01-17T02:22:21.364Z,99321.50
2023-01-17T02:24:58.662Z,99308.67
2023-01-17T02:27:29.029Z,99301.42
2023-01-17T02:30:14.474Z,99302.48
2023-01-17T02:32:58.084Z,99293.95
2023-01-17T02:35:33.131Z,99298.89
2023-01-17T02:38:12.149Z,99308.62
2023-01-17T02:40:47.321Z,99313.17
2023-01-17T02:43:16.177Z,99322.13
2023-01-17T02:45:43.383Z,99330.31
2023-01-17T02:48:14.201Z,99337.70
2023-01-17T02:51:05.379Z,99332.95
2023-01-17T02:53:42.485Z,99328.23
2023-01-17T02:56:28.359Z,99328.96
2023-01-17T02:59:14.183Z,99334.16
2023-01-17T03:01:53.555Z,99320.95
2023-01-17T03:04:59.223Z,99309.34
2023-01-17T03:07:28.444Z,99319.52
2023-01-17T03:10:00.293Z,99316.79
2023-01-17T03:12:34.594Z,99316.34
2023-01-17T03:15:01.239Z,99304.35
2023-01-17T03:17:32.599Z,99285.65
2023-01-17T03:19:59.336Z,99281.55
2023-01-17T03:22:26.267Z,99301.98
2023-01-17T03:24:53.088Z,99301.57
2023-01-17T03:27:20.019Z,99305.58
2023-01-17T03:29:46.712Z,99315.00
2023-01-17T03:32:13.457Z,99317.36
2023-01-17T03:34:40.088Z,99312.40
2023-01-17T03:37:07.039Z,99307.71
2023-01-17T03:39:34.324Z,99293.38
2023-01-17T03:42:01.163Z,99288.02
2023-01-17T03:44:28.687Z,99290.48
2023-01-17T03:46:55.750Z,99291.80
2023-01-17T03:49:22.680Z,99289.84
2023-01-17T03:51:49.636Z,99279.98
2023-01-17T03:54:16.572Z,99285.63
2023-01-17T03:56:43.319Z,99286.73
2023-01-17T03:59:12.970Z,99284.17
2023-01-17T04:01:40.138Z,99286.25
2023-01-17T04:04:07.131Z,99281.85
2023-01-17T04:06:33.859Z,99275.02
2023-01-17T04:09:00.541Z,99275.95
2023-01-17T04:11:27.443Z,99277.30
2023-01-17T04:13:54.723Z,99268.65
2023-01-17T04:16:26.978Z,99268.23
2023-01-17T04:18:54.217Z,99275.27
2023-01-17T04:21:21.587Z,99276.23
2023-01-17T04:23:48.684Z,99276.30
2023-01-17T04:26:15.466Z,99270.91
2023-01-17T04:28:42.696Z,99269.47
2023-01-17T04:31:15.504Z,99271.13
2023-01-17T04:33:42.547Z,99268.96
2023-01-17T04:36:09.290Z,99265.38
2023-01-17T04:38:36.448Z,99257.51
2023-01-17T04:41:03.286Z,99247.63
2023-01-17T04:43:30.231Z,99248.05
2023-01-17T04:45:58.141Z,99250.71
2023-01-17T04:48:26.676Z,99258.05
2023-01-17T04:51:01.082Z,99271.14
2023-01-17T04:53:28.252Z,99275.47
2023-01-17T04:55:55.294Z,99280.41
2023-01-17T04:58:22.343Z,99280.92
2023-01-17T05:00:50.513Z,99282.10
2023-01-17T05:03:19.654Z,99281.93
2023-01-17T05:05:48.000Z,99281.80
2023-01-17T05:08:14.941Z,99285.81
2023-01-17T05:10:41.781Z,99280.22
2023-01-17T05:13:08.936Z,99282.07
2023-01-17T05:15:36.191Z,99283.69
2023-01-17T05:18:08.044Z,99281.09
2023-01-17T05:20:36.222Z,99288.71
2023-01-17T05:23:02.968Z,99299.22
2023-01-17T05:25:31.673Z,99303.80
2023-01-17T05:27:59.740Z,99304.73
2023-01-17T05:30:29.032Z,99311.69
2023-01-17T05:32:57.809Z,99320.70
2023-01-17T05:35:27.957Z,99326.48
2023-01-17T05:37:55.691Z,99330.48
2023-01-17T05:40:26.837Z,99334.35
2023-01-17T05:42:56.454Z,99343.48
2023-01-17T05:45:26.363Z,99344.67
2023-01-17T05:47:55.255Z,99348.90
2023-01-17T05:50:24.856Z,99355.67
2023-01-17T05:52:56.856Z,99369.25
2023-01-17T05:55:28.295Z,99362.92
2023-01-17T05:57:55.403Z,99364.79
2023-01-17T06:00:22.885Z,99367.20
2023-01-17T06:02:52.415Z,99375.27
2023-01-17T06:05:20.869Z,99378.11
2023-01-17T06:07:50.659Z,99378.23
2023-01-17T06:10:20.186Z,99370.66
2023-01-17T06:12:47.761Z,99374.13
2023-01-17T06:15:17.031Z,99372.88
2023-01-17T06:17:43.786Z,99370.23
2023-01-17T06:20:12.471Z,99379.07
2023-01-17T06:22:39.332Z,99384.34
2023-01-17T06:25:07.888Z,99387.58
2023-01-17T06:27:34.962Z,99385.80
2023-01-17T06:30:01.900Z,99379.85
2023-01-17T06:32:29.052Z,99387.33
2023-01-17T06:34:55.989Z,99373.13
2023-01-17T06:37:23.147Z,99376.79
2023-01-17T06:39:49.982Z,99376.30
2023-01-17T06:42:16.996Z,99374.23
2023-01-17T06:44:43.774Z,99375.57
2023-01-17T06:47:10.717Z,99375.23
2023-01-17T06:49:37.560Z,99365.96
2023-01-17T06:52:04.613Z,99355.79
2023-01-17T06:54:31.347Z,99348.05
2023-01-17T06:56:58.294Z,99349.66
2023-01-17T06:59:25.237Z,99349.08
2023-01-17T07:01:52.403Z,99349.83
2023-01-17T07:04:19.332Z,99345.60
2023-01-17T07:06:46.183Z,99347.98
2023-01-17T07:09:13.020Z,99344.02
2023-01-17T07:11:40.069Z,99346.42
2023-01-17T07:14:12.543Z,99354.50
2023-01-17T07:16:39.901Z,99359.44
2023-01-17T07:19:06.951Z,99359.06
2023-01-17T07:21:33.739Z,99359.18
2023-01-17T07:24:00.631Z,99355.88
2023-01-17T07:26:27.581Z,99358.30
2023-01-17T07:28:54.325Z,99362.35
2023-01-17T07:31:21.183Z,99363.69
2023-01-17T07:33:48.004Z,99363.30
2023-01-17T07:36:15.031Z,99365.85
2023-01-17T07:38:43.443Z,99369.65
2023-01-17T07:41:11.134Z,99365.27
2023-01-17T07:43:38.554Z,99370.77
2023-01-17T07:46:07.549Z,99376.78
2023-01-17T07:48:34.906Z,99364.71
2023-01-17T07:51:01.845Z,99364.25
2023-01-17T07:53:30.323Z,99360.21
2023-01-17T07:56:02.288Z,99354.88
2023-01-17T07:58:29.861Z,99354.30
2023-01-17T08:01:08.571Z,99354.27
2023-01-17T08:03:39.338Z,99351.86
2023-01-17T08:06:15.986Z,99357.02
2023-01-17T08:08:43.538Z,99363.53
2023-01-17T08:11:10.286Z,99365.31
2023-01-17T08:13:37.226Z,99373.23
2023-01-17T08:16:04.956Z,99355.77
2023-01-17T08:18:31.761Z,99353.56
2023-01-17T08:21:01.039Z,99342.41
2023-01-17T08:23:27.985Z,99342.66
2023-01-17T08:26:00.051Z,99340.55
2023-01-17T08:28:27.090Z,99343.88
2023-01-17T08:30:53.833Z,99343.27
2023-01-17T08:33:20.674Z,99347.83
2023-01-17T08:35:51.925Z,99346.02
2023-01-17T08:38:19.786Z,99351.04
2023-01-17T08:40:46.736Z,99358.58
2023-01-17T08:43:13.474Z,99368.12
2023-01-17T08:45:43.399Z,99374.33
2023-01-17T08:48:10.742Z,99371.54
2023-01-17T08:50:37.791Z,99374.60
2023-01-17T08:53:04.639Z,99376.50
2023-01-17T08:55:33.012Z,99369.92
2023-01-17T08:57:59.867Z,99365.77
2023-01-17T09:00:28.137Z,99359.23
2023-01-17T09:02:55.199Z,99356.98
2023-01-17T09:05:22.334Z,99355.45
2023-01-17T09:07:49.797Z,99349.98
2023-01-17T09:10:17.348Z,99341.75
2023-01-17T09:12:45.126Z,99334.88
2023-01-17T09:15:17.179Z,99321.98
2023-01-17T09:17:44.228Z,99323.75
2023-01-17T09:20:11.363Z,99318.61
2023-01-17T09:22:40.250Z,99315.56
2023-01-17T09:25:08.033Z,99312.55
2023-01-17T09:27:35.186Z,99313.65
2023-01-17T09:30:03.975Z,99316.80
2023-01-17T09:32:31.027Z,99320.81
2023-01-17T09:35:00.442Z,99312.88
2023-01-17T09:37:27.601Z,99312.15
2023-01-17T09:39:54.645Z,99314.71
2023-01-17T09:42:32.255Z,99314.98
2023-01-17T09:44:59.176Z,99317.06
2023-01-17T09:47:53.245Z,99317.63
2023-01-17T09:50:24.702Z,99319.64
2023-01-17T09:53:00.782Z,99318.39
2023-01-17T09:55:38.348Z,99312.17
2023-01-17T09:58:19.328Z,99310.70
2023-01-17T10:00:56.610Z,99308.67
2023-01-17T10:03:42.090Z,99302.06
2023-01-17T10:06:15.949Z,99289.95
2023-01-17T10:08:54.824Z,99287.93
2023-01-17T10:11:46.456Z,99289.89
2023-01-17T10:14:22.004Z,99295.58
2023-01-17T10:17:13.112Z,99290.14
2023-01-17T10:19:48.964Z,99296.86
2023-01-17T10:22:40.181Z,99299.48
2023-01-17T10:25:49.603Z,99298.39
2023-01-17T10:28:23.735Z,99293.25
2023-01-17T10:30:57.719Z,99293.35
2023-01-17T10:33:29.632Z,99288.27
2023-01-17T10:36:03.269Z,99280.77
2023-01-17T10:38:42.870Z,99279.14
2023-01-17T10:41:32.837Z,99276.83
2023-01-17T10:44:05.351Z,99278.33
2023-01-17T10:46:41.063Z,99283.08
2023-01-17T10:49:23.169Z,99280.20
2023-01-17T10:51:59.751Z,99267.40
2023-01-17T10:54:58.576Z,99267.43
2023-01-17T10:57:27.242Z,99265.28
2023-01-17T10:59:59.522Z,99264.59
2023-01-17T11:02:39.558Z,99265.20
2023-01-17T11:05:19.901Z,99256.77
2023-01-17T11:08:05.487Z,99257.06
2023-01-17T11:10:39.285Z,99258.76
2023-01-17T11:13:22.103Z,99264.34
2023-01-17T11:15:52.876Z,99263.41
2023-01-17T11:18:21.417Z,99267.62
2023-01-17T11:20:49.402Z,99259.08
2023-01-17T11:23:20.843Z,99252.38
2023-01-17T11:25:55.077Z,99253.23
2023-01-17T11:28:30.680Z,99257.30
2023-01-17T11:31:01.186Z,99254.06
2023-01-17T11:33:47.339Z,99247.81
2023-01-17T11:36:18.381Z,99252.72
2023-01-17T11:38:59.345Z,99245.85
2023-01-17T11:41:30.081Z,99247.48
2023-01-17T11:43:58.601Z,99241.73
2023-01-17T11:46:29.393Z,99238.57
2023-01-17T11:49:00.873Z,99236.25
2023-01-17T11:51:43.052Z,99235.37
2023-01-17T11:54:26.795Z,99241.21
2023-01-17T11:56:59.016Z,99242.35
2023-01-17T11:59:35.847Z,99241.13
2023-01-17T12:02:36.577Z,99234.30
2023-01-17T12:05:39.779Z,99234.34
2023-01-17T12:08:25.672Z,99238.43
2023-01-17T12:10:55.375Z,99236.09
2023-01-17T12:14:01.138Z,99243.50
2023-01-17T12:16:50.299Z,99243.44
2023-01-17T12:19:31.986Z,99240.48
2023-01-17T12:22:17.983Z,99238.23
2023-01-17T12:25:06.750Z,99237.61
2023-01-17T12:28:03.991Z,99236.02
2023-01-17T12:30:33.710Z,99227.87
2023-01-17T12:33:22.944Z,99224.98
2023-01-17T12:36:01.076Z,99225.32
2023-01-17T12:38:47.950Z,99221.89
2023-01-17T12:41:23.794Z,99221.27
2023-01-17T12:43:55.892Z,99225.30
2023-01-17T12:46:33.628Z,99221.64
2023-01-17T12:49:21.552Z,99224.27
2023-01-17T12:51:55.455Z,99221.31
2023-01-17T12:54:35.765Z,99222.42
2023-01-17T12:57:14.028Z,99217.23
2023-01-17T13:00:02.284Z,99218.10
2023-01-17T13:02:47.237Z,99209.30
2023-01-17T13:05:23.094Z,99215.77
2023-01-17T13:08:02.221Z,99218.94
2023-01-17T13:10:51.604Z,99213.73
2023-01-17T13:13:23.451Z,99219.85
2023-01-17T13:16:13.106Z,99227.44
2023-01-17T13:18:45.860Z,99228.45
2023-01-17T13:21:29.981Z,99229.27
2023-01-17T13:23:58.548Z,99231.55
2023-01-17T13:26:51.957Z,99235.92
2023-01-17T13:29:47.639Z,99242.88
2023-01-17T13:32:52.051Z,99245.88
2023-01-17T13:35:25.779Z,99244.86
2023-01-17T13:38:11.963Z,99246.04
2023-01-17T13:40:57.953Z,99242.95
2023-01-17T13:43:29.791Z,99249.27
2023-01-17T13:45:59.874Z,99250.70
2023-01-17T13:48:29.860Z,99245.52
2023-01-17T13:51:09.204Z,99243.15
2023-01-17T13:53:40.025Z,99243.80
2023-01-17T13:56:19.179Z,99243.91
2023-01-17T13:58:57.355Z,99253.73
2023-01-17T14:01:24.119Z,99252.15
2023-01-17T14:03:53.934Z,99254.02
2023-01-17T14:06:32.758Z,99254.81
2023-01-17T14:09:20.627Z,99250.00
2023-01-17T14:12:06.465Z,99251.70
2023-01-17T14:14:39.249Z,99245.32
2023-01-17T14:17:16.183Z,99249.95
2023-01-17T14:19:47.776Z,99249.48
2023-01-17T14:22:27.331Z,99253.40
2023-01-17T14:25:18.735Z,99257.67
2023-01-17T14:27:49.477Z,99260.62
2023-01-17T14:30:17.134Z,99265.42
2023-01-17T14:33:02.516Z,99266.75
2023-01-17T14:35:33.046Z,99270.81
2023-01-17T14:38:05.107Z,99271.02
2023-01-17T14:40:35.361Z,99273.92
2023-01-17T14:43:13.557Z,99279.51
2023-01-17T14:45:41.846Z,99285.88
2023-01-17T14:48:21.045Z,99289.07
2023-01-17T14:51:02.370Z,99286.30
2023-01-17T14:53:31.595Z,99284.20
2023-01-17T14:56:12.403Z,99283.61
2023-01-17T14:58:40.779Z,99290.61
2023-01-17T15:01:13.873Z,99289.23
2023-01-17T15:03:53.821Z,99294.18
2023-01-17T15:06:41.045Z,99296.61
2023-01-17T15:09:18.013Z,99295.83
2023-01-17T15:11:47.557Z,99294.83
2023-01-17T15:14:21.545Z,99298.23
2023-01-17T15:16:51.414Z,99298.98
2023-01-17T15:19:19.628Z,99301.84
2023-01-17T15:21:50.239Z,99303.33
2023-01-17T15:24:24.670Z,99301.11
2023-01-17T15:26:51.728Z,99297.63
2023-01-17T15:29:31.745Z,99300.92
2023-01-17T15:32:01.556Z,99298.58
2023-01-17T15:34:30.501Z,99301.21
2023-01-17T15:37:03.266Z,99297.18
2023-01-17T15:39:33.500Z,99294.57
2023-01-17T15:42:07.090Z,99298.55
2023-01-17T15:44:47.994Z,99298.94
2023-01-17T15:47:31.418Z,99302.04
2023-01-17T15:50:00.704Z,99308.40
2023-01-17T15:52:28.273Z,99311.13
2023-01-17T15:55:11.690Z,99309.58
2023-01-17T15:57:39.247Z,99309.78
2023-01-17T16:00:19.915Z,99308.73
2023-01-17T16:02:55.532Z,99315.77
2023-01-17T16:05:32.647Z,99313.47
2023-01-17T16:08:02.876Z,99307.99
2023-01-17T16:10:36.613Z,99307.46
2023-01-17T16:13:06.094Z,99303.17
2023-01-17T16:15:35.404Z,99302.87
2023-01-17T16:18:06.332Z,99302.42
2023-01-17T16:20:59.155Z,99300.50
2023-01-17T16:23:26.837Z,99304.64
2023-01-17T16:25:53.782Z,99300.77
2023-01-17T16:28:20.623Z,99298.91
2023-01-17T16:30:49.038Z,99295.05
2023-01-17T16:33:16.462Z,99294.08
2023-01-17T16:35:43.713Z,99295.44
2023-01-17T16:38:13.534Z,99289.86
2023-01-17T16:40:45.916Z,99284.42
2023-01-17T16:43:18.107Z,99281.87
2023-01-17T16:45:47.725Z,99285.63
2023-01-17T16:48:14.767Z,99288.77
2023-01-17T16:50:47.590Z,99288.66
2023-01-17T16:53:19.679Z,99291.54
2023-01-17T16:55:46.925Z,99290.87
2023-01-17T16:58:14.907Z,99299.67
2023-01-17T17:00:42.871Z,99306.34
2023-01-17T17:03:18.936Z,99312.94
2023-01-17T17:05:54.581Z,99318.89
2023-01-17T17:08:22.970Z,99315.04
2023-01-17T17:10:49.897Z,99310.87
2023-01-17T17:13:16.847Z,99307.19
2023-01-17T17:15:46.723Z,99311.77
2023-01-17T17:18:15.496Z,99314.12
2023-01-17T17:20:43.525Z,99315.27
2023-01-17T17:23:11.123Z,99308.68
2023-01-17T17:25:38.342Z,99298.84
2023-01-17T17:28:06.197Z,99292.59
2023-01-17T17:30:33.962Z,99301.51
2023-01-17T17:33:03.977Z,99309.77
2023-01-17T17:35:34.404Z,99309.63
2023-01-17T17:38:01.358Z,99313.34
2023-01-17T17:40:28.396Z,99304.94
2023-01-17T17:42:55.499Z,99307.74
2023-01-17T17:45:22.696Z,99305.02
2023-01-17T17:47:49.747Z,99301.42
2023-01-17T17:50:16.587Z,99305.32
2023-01-17T17:52:43.747Z,99307.16
2023-01-17T17:55:10.692Z,99305.25
2023-01-17T17:57:37.427Z,99309.91
2023-01-17T18:00:05.814Z,99301.05
2023-01-17T18:02:33.448Z,99293.51
2023-01-17T18:05:01.789Z,99289.87
2023-01-17T18:07:32.169Z,99283.64
2023-01-17T18:09:59.125Z,99281.57
2023-01-17T18:12:26.374Z,99277.83
2023-01-17T18:14:53.418Z,99268.96
2023-01-17T18:17:20.372Z,99272.38
2023-01-17T18:19:47.214Z,99267.33
2023-01-17T18:22:15.186Z,99263.65
2023-01-17T18:24:42.632Z,99260.02
2023-01-17T18:27:09.988Z,99249.96
2023-01-17T18:29:36.937Z,99248.59
2023-01-17T18:32:04.117Z,99246.20
2023-01-17T18:34:33.699Z,99245.20
2023-01-17T18:37:00.737Z,99239.52
2023-01-17T18:39:29.561Z,99238.84
2023-01-17T18:41:57.307Z,99241.52
2023-01-17T18:44:26.135Z,99242.83
2023-01-17T18:46:54.219Z,99239.98
2023-01-17T18:49:21.411Z,99236.58
2023-01-17T18:51:50.092Z,99231.95
2023-01-17T18:54:18.686Z,99223.15
2023-01-17T18:56:45.826Z,99220.97
2023-01-17T18:59:14.116Z,99221.70
2023-01-17T19:01:43.140Z,99215.05
2023-01-17T19:04:12.073Z,99210.52
2023-01-17T19:06:41.801Z,99208.58
2023-01-17T19:09:11.307Z,99206.22
2023-01-17T19:11:38.455Z,99206.15
2023-01-17T19:14:06.352Z,99202.13
2023-01-17T19:16:38.470Z,99194.84
2023-01-17T19:19:08.815Z,99191.09
2023-01-17T19:21:36.687Z,99187.65
2023-01-17T19:24:04.447Z,99177.05
2023-01-17T19:26:31.394Z,99180.13
2023-01-17T19:28:58.441Z,99176.21
2023-01-17T19:31:28.148Z,99179.52
2023-01-17T19:33:57.553Z,99183.31
2023-01-17T19:36:32.905Z,99179.27
2023-01-17T19:39:04.855Z,99178.44
2023-01-17T19:41:35.412Z,99177.90
2023-01-17T19:44:05.153Z,99177.73
2023-01-17T19:46:33.088Z,99170.21
2023-01-17T19:49:00.645Z,99173.49
2023-01-17T19:51:28.294Z,99177.61
2023-01-17T19:53:56.169Z,99169.39
2023-01-17T19:56:24.961Z,99162.91
2023-01-17T19:58:53.023Z,99161.54
2023-01-17T20:01:28.158Z,99164.70
2023-01-17T20:03:58.093Z,99168.25
2023-01-17T20:06:28.192Z,99167.72
2023-01-17T20:08:55.554Z,99166.82
2023-01-17T20:11:24.438Z,99166.99
2023-01-17T20:13:55.292Z,99164.61
2023-01-17T20:16:23.915Z,99167.73
2023-01-17T20:18:51.370Z,99174.65
2023-01-17T20:21:23.591Z,99182.85
2023-01-17T20:23:52.361Z,99188.00
2023-01-17T20:26:30.416Z,99187.54
2023-01-17T20:28:57.225Z,99180.22
2023-01-17T20:31:26.672Z,99176.05
2023-01-17T20:33:55.007Z,99182.14
2023-01-17T20:36:24.344Z,99178.47
2023-01-17T20:38:52.685Z,99175.77
2023-01-17T20:41:37.980Z,99173.57
2023-01-17T20:44:09.004Z,99175.05
2023-01-17T20:46:40.430Z,99172.48
2023-01-17T20:49:16.416Z,99168.34
2023-01-17T20:51:44.840Z,99170.34
2023-01-17T20:54:14.379Z,99163.25
2023-01-17T20:56:41.810Z,99167.30
2023-01-17T20:59:12.738Z,99166.04
2023-01-17T21:01:41.527Z,99163.70
2023-01-17T21:04:10.158Z,99147.15
2023-01-17T21:06:39.056Z,99142.61
2023-01-17T21:09:08.301Z,99133.34
2023-01-17T21:11:36.531Z,99131.00
2023-01-17T21:14:08.244Z,99132.84
2023-01-17T21:16:35.649Z,99128.52
2023-01-17T21:19:03.114Z,99130.34
2023-01-17T21:21:31.897Z,99127.22
2023-01-17T21:23:59.584Z,99122.98
2023-01-17T21:26:28.093Z,99116.07
2023-01-17T21:28:56.105Z,99111.91
2023-01-17T21:31:22.873Z,99107.05
2023-01-17T21:33:51.949Z,99105.56
2023-01-17T21:36:21.247Z,99106.98
2023-01-17T21:38:56.389Z,99106.97
2023-01-17T21:41:28.808Z,99096.94
2023-01-17T21:43:58.124Z,99086.65
2023-01-17T21:46:26.270Z,99081.46
2023-01-17T21:48:53.493Z,99078.85
2023-01-17T21:51:21.183Z,99076.20
2023-01-17T21:53:48.198Z,99077.56
2023-01-17T21:56:34.707Z,99073.89
2023-01-17T21:59:01.562Z,99073.71
2023-01-17T22:01:32.106Z,99070.92
2023-01-17T22:04:02.190Z,99075.48
2023-01-17T22:06:31.960Z,99070.38
2023-01-17T22:08:59.152Z,99072.67
2023-01-17T22:11:29.749Z,99065.92
2023-01-17T22:13:59.535Z,99070.98
2023-01-17T22:16:26.545Z,99073.05
2023-01-17T22:18:53.703Z,99071.88
2023-01-17T22:21:23.302Z,99064.59
2023-01-17T22:23:51.702Z,99059.48
2023-01-17T22:26:23.849Z,99055.95
2023-01-17T22:28:50.727Z,99048.23
2023-01-17T22:31:20.362Z,99041.30
2023-01-17T22:33:52.775Z,99033.64
2023-01-17T22:36:20.135Z,99028.64
2023-01-17T22:38:47.583Z,99023.30
2023-01-17T22:41:19.652Z,99030.33
2023-01-17T22:43:48.956Z,99022.16
2023-01-17T22:46:18.589Z,99026.79
2023-01-17T22:48:45.920Z,99027.80
2023-01-17T22:51:15.219Z,99024.48
2023-01-17T22:54:00.602Z,99026.16
2023-01-17T22:56:31.095Z,99019.49
2023-01-17T22:59:00.099Z,99019.09
2023-01-17T23:01:32.046Z,99013.76
2023-01-17T23:04:02.131Z,99012.81
2023-01-17T23:06:30.327Z,99011.15
2023-01-17T23:09:00.192Z,99005.84
2023-01-17T23:11:44.542Z,99007.11
2023-01-17T23:14:15.888Z,99004.55
2023-01-17T23:17:04.748Z,99003.11
2023-01-17T23:19:37.211Z,98997.54
2023-01-17T23:22:15.945Z,98997.66
2023-01-17T23:24:46.988Z,98994.36
2023-01-17T23:27:35.643Z,98989.02
2023-01-17T23:30:14.883Z,98989.08
2023-01-17T23:32:47.793Z,98992.39
2023-01-17T23:35:18.190Z,98993.00
2023-01-17T23:38:03.667Z,98998.27
2023-01-17T23:40:32.351Z,98995.60
2023-01-17T23:43:17.629Z,98995.98
2023-01-17T23:45:44.675Z,98998.77
2023-01-17T23:48:11.620Z,99003.35
2023-01-17T23:50:40.716Z,98998.98
2023-01-17T23:53:09.006Z,98999.11
2023-01-17T23:55:39.429Z,98997.39
2023-01-17T23:58:08.513Z,98993.95
